sensor_id;sensor_type;location;lat;lon;timestamp;pressure;altitude;pressure_sealevel;temperature;humidity
45255;BME280;30989;52.078;21.014;2023-07-13T00:00:01;168488.59;;;17.99;100.00
45255;BME280;30989;52.078;21.014;2023-07-13T00:02:26;168485.91;;;17.98;100.00
45255;BME280;30989;52.078;21.014;2023-07-13T00:04:54;168499.34;;;18.03;100.00
45255;BME280;30989;52.078;21.014;2023-07-13T00:07:20;168502.03;;;18.04;100.00
45255;BME280;30989;52.078;21.014;2023-07-13T00:09:46;168489.94;;;17.99;100.00
45255;BME280;30989;52.078;21.014;2023-07-13T00:12:30;168496.66;;;18.02;100.00
45255;BME280;30989;52.078;21.014;2023-07-13T00:15:00;168485.91;;;17.98;100.00
45255;BME280;30989;52.078;21.014;2023-07-13T00:17:27;168477.81;;;17.95;100.00
45255;BME280;30989;52.078;21.014;2023-07-13T00:19:53;168465.72;;;17.90;100.00
45255;BME280;30989;52.078;21.014;2023-07-13T00:22:19;168467.06;;;17.91;100.00
45255;BME280;30989;52.078;21.014;2023-07-13T00:24:45;168464.38;;;17.90;100.00
45255;BME280;30989;52.078;21.014;2023-07-13T00:27:11;168468.41;;;17.91;100.00
45255;BME280;30989;52.078;21.014;2023-07-13T00:29:37;168459.00;;;17.88;100.00
45255;BME280;30989;52.078;21.014;2023-07-13T00:32:04;168448.22;;;17.84;100.00
45255;BME280;30989;52.078;21.014;2023-07-13T00:34:29;168426.72;;;17.76;100.00
45255;BME280;30989;52.078;21.014;2023-07-13T00:36:55;168415.94;;;17.71;100.00
45255;BME280;30989;52.078;21.014;2023-07-13T00:39:21;168414.59;;;17.71;100.00
45255;BME280;30989;52.078;21.014;2023-07-13T00:41:47;168405.19;;;17.67;100.00
45255;BME280;30989;52.078;21.014;2023-07-13T00:44:14;168413.25;;;17.70;100.00
45255;BME280;30989;52.078;21.014;2023-07-13T00:46:40;168413.25;;;17.70;100.00
45255;BME280;30989;52.078;21.014;2023-07-13T00:49:10;168424.03;;;17.75;100.00
45255;BME280;30989;52.078;21.014;2023-07-13T00:51:44;168415.94;;;17.71;100.00
45255;BME280;30989;52.078;21.014;2023-07-13T00:54:15;168405.19;;;17.67;100.00
45255;BME280;30989;52.078;21.014;2023-07-13T00:56:45;168405.19;;;17.67;100.00
45255;BME280;30989;52.078;21.014;2023-07-13T00:59:13;168409.22;;;17.69;100.00
45255;BME280;30989;52.078;21.014;2023-07-13T01:01:40;168409.22;;;17.69;100.00
45255;BME280;30989;52.078;21.014;2023-07-13T01:04:06;168405.19;;;17.67;100.00
45255;BME280;30989;52.078;21.014;2023-07-13T01:06:37;168413.25;;;17.70;100.00
45255;BME280;30989;52.078;21.014;2023-07-13T01:09:04;168395.72;;;17.64;100.00
45255;BME280;30989;52.078;21.014;2023-07-13T01:11:30;168394.38;;;17.63;100.00
45255;BME280;30989;52.078;21.014;2023-07-13T01:13:55;168393.03;;;17.63;100.00
45255;BME280;30989;52.078;21.014;2023-07-13T01:16:25;168383.63;;;17.59;100.00
45255;BME280;30989;52.078;21.014;2023-07-13T01:18:52;168387.66;;;17.61;100.00
45255;BME280;30989;52.078;21.014;2023-07-13T01:21:18;168386.31;;;17.60;100.00
45255;BME280;30989;52.078;21.014;2023-07-13T01:23:44;168391.69;;;17.62;100.00
45255;BME280;30989;52.078;21.014;2023-07-13T01:26:11;168397.06;;;17.64;100.00
45255;BME280;30989;52.078;21.014;2023-07-13T01:28:37;168405.19;;;17.67;100.00
45255;BME280;30989;52.078;21.014;2023-07-13T01:31:03;168411.91;;;17.70;100.00
45255;BME280;30989;52.078;21.014;2023-07-13T01:33:28;168415.94;;;17.71;100.00
45255;BME280;30989;52.078;21.014;2023-07-13T01:35:55;168419.97;;;17.73;100.00
45255;BME280;30989;52.078;21.014;2023-07-13T01:38:23;168429.41;;;17.77;100.00
45255;BME280;30989;52.078;21.014;2023-07-13T01:40:50;168421.34;;;17.74;100.00
45255;BME280;30989;52.078;21.014;2023-07-13T01:43:16;168437.47;;;17.80;100.00
45255;BME280;30989;52.078;21.014;2023-07-13T01:45:41;168437.47;;;17.80;100.00
45255;BME280;30989;52.078;21.014;2023-07-13T01:48:09;168448.22;;;17.84;100.00
45255;BME280;30989;52.078;21.014;2023-07-13T01:50:35;168445.53;;;17.83;100.00
45255;BME280;30989;52.078;21.014;2023-07-13T01:53:00;168438.81;;;17.80;100.00
45255;BME280;30989;52.078;21.014;2023-07-13T01:55:28;168448.22;;;17.84;100.00
45255;BME280;30989;52.078;21.014;2023-07-13T01:57:53;168452.28;;;17.85;100.00
45255;BME280;30989;52.078;21.014;2023-07-13T02:00:19;168459.00;;;17.88;100.00
45255;BME280;30989;52.078;21.014;2023-07-13T02:02:47;168465.72;;;17.90;100.00
45255;BME280;30989;52.078;21.014;2023-07-13T02:05:13;168464.38;;;17.90;100.00
45255;BME280;30989;52.078;21.014;2023-07-13T02:07:40;168463.03;;;17.89;100.00
45255;BME280;30989;52.078;21.014;2023-07-13T02:10:08;168440.16;;;17.81;100.00
45255;BME280;30989;52.078;21.014;2023-07-13T02:12:34;168430.75;;;17.77;100.00
45255;BME280;30989;52.078;21.014;2023-07-13T02:15:01;168446.88;;;17.83;100.00
45255;BME280;30989;52.078;21.014;2023-07-13T02:17:27;168445.53;;;17.83;100.00
45255;BME280;30989;52.078;21.014;2023-07-13T02:19:53;168442.84;;;17.82;100.00
45255;BME280;30989;52.078;21.014;2023-07-13T02:22:18;168434.78;;;17.79;100.00
45255;BME280;30989;52.078;21.014;2023-07-13T02:24:44;168424.03;;;17.75;100.00
45255;BME280;30989;52.078;21.014;2023-07-13T02:27:09;168425.38;;;17.75;100.00
45255;BME280;30989;52.078;21.014;2023-07-13T02:29:35;168418.63;;;17.73;100.00
45255;BME280;30989;52.078;21.014;2023-07-13T02:32:00;168421.34;;;17.74;100.00
45255;BME280;30989;52.078;21.014;2023-07-13T02:34:25;168394.38;;;17.63;100.00
45255;BME280;30989;52.078;21.014;2023-07-13T02:36:51;168393.03;;;17.63;100.00
45255;BME280;30989;52.078;21.014;2023-07-13T02:39:17;168378.25;;;17.57;100.00
45255;BME280;30989;52.078;21.014;2023-07-13T02:41:42;168367.47;;;17.53;100.00
45255;BME280;30989;52.078;21.014;2023-07-13T02:44:07;168362.09;;;17.51;100.00
45255;BME280;30989;52.078;21.014;2023-07-13T02:46:36;168370.16;;;17.54;100.00
45255;BME280;30989;52.078;21.014;2023-07-13T02:49:02;168354.03;;;17.48;100.00
45255;BME280;30989;52.078;21.014;2023-07-13T02:51:28;168332.50;;;17.40;100.00
45255;BME280;30989;52.078;21.014;2023-07-13T02:53:53;168362.09;;;17.51;100.00
45255;BME280;30989;52.078;21.014;2023-07-13T02:56:24;168362.09;;;17.51;100.00
45255;BME280;30989;52.078;21.014;2023-07-13T02:58:51;168356.72;;;17.49;100.00
45255;BME280;30989;52.078;21.014;2023-07-13T03:01:16;168362.09;;;17.51;100.00
45255;BME280;30989;52.078;21.014;2023-07-13T03:03:46;168364.78;;;17.52;100.00
45255;BME280;30989;52.078;21.014;2023-07-13T03:06:12;168368.81;;;17.54;100.00
45255;BME280;30989;52.078;21.014;2023-07-13T03:08:47;168375.56;;;17.56;100.00
45255;BME280;30989;52.078;21.014;2023-07-13T03:11:17;168376.91;;;17.57;100.00
45255;BME280;30989;52.078;21.014;2023-07-13T03:13:44;168379.59;;;17.58;100.00
45255;BME280;30989;52.078;21.014;2023-07-13T03:16:11;168378.25;;;17.57;100.00
45255;BME280;30989;52.078;21.014;2023-07-13T03:18:37;168384.97;;;17.60;100.00
45255;BME280;30989;52.078;21.014;2023-07-13T03:21:05;168382.28;;;17.59;100.00
45255;BME280;30989;52.078;21.014;2023-07-13T03:23:31;168383.63;;;17.59;100.00
45255;BME280;30989;52.078;21.014;2023-07-13T03:26:11;168397.06;;;17.64;100.00
45255;BME280;30989;52.078;21.014;2023-07-13T03:28:39;168394.38;;;17.63;100.00
45255;BME280;30989;52.078;21.014;2023-07-13T03:31:16;168393.03;;;17.63;100.00
45255;BME280;30989;52.078;21.014;2023-07-13T03:33:42;168382.28;;;17.59;100.00
45255;BME280;30989;52.078;21.014;2023-07-13T03:36:13;168387.66;;;17.61;100.00
45255;BME280;30989;52.078;21.014;2023-07-13T03:38:39;168379.59;;;17.58;100.00
45255;BME280;30989;52.078;21.014;2023-07-13T03:41:05;168391.69;;;17.62;100.00
45255;BME280;30989;52.078;21.014;2023-07-13T03:43:31;168391.69;;;17.62;100.00
45255;BME280;30989;52.078;21.014;2023-07-13T03:45:56;168403.84;;;17.67;100.00
45255;BME280;30989;52.078;21.014;2023-07-13T03:48:22;168415.94;;;17.71;100.00
45255;BME280;30989;52.078;21.014;2023-07-13T03:50:48;168422.69;;;17.74;100.00
45255;BME280;30989;52.078;21.014;2023-07-13T03:53:15;168417.28;;;17.72;100.00
45255;BME280;30989;52.078;21.014;2023-07-13T03:55:40;168444.19;;;17.82;100.00
45255;BME280;30989;52.078;21.014;2023-07-13T03:58:29;168457.66;;;17.87;100.00
45255;BME280;30989;52.078;21.014;2023-07-13T04:01:00;168461.69;;;17.89;100.00
45255;BME280;30989;52.078;21.014;2023-07-13T04:03:26;168477.81;;;17.95;100.00
45255;BME280;30989;52.078;21.014;2023-07-13T04:05:54;168491.28;;;18.00;100.00
45255;BME280;30989;52.078;21.014;2023-07-13T04:08:21;168520.88;;;18.11;100.00
45255;BME280;30989;52.078;21.014;2023-07-13T04:10:47;168546.44;;;18.21;100.00
45255;BME280;30989;52.078;21.014;2023-07-13T04:13:12;168577.38;;;18.32;100.00
45255;BME280;30989;52.078;21.014;2023-07-13T04:15:38;168631.19;;;18.53;100.00
45255;BME280;30989;52.078;21.014;2023-07-13T04:18:04;168679.69;;;18.71;100.00
45255;BME280;30989;52.078;21.014;2023-07-13T04:20:29;168736.22;;;18.92;100.00
45255;BME280;30989;52.078;21.014;2023-07-13T04:22:55;168800.84;;;19.17;100.00
45255;BME280;30989;52.078;21.014;2023-07-13T04:25:21;168854.69;;;19.37;100.00
45255;BME280;30989;52.078;21.014;2023-07-13T04:27:46;168908.59;;;19.57;100.00
45255;BME280;30989;52.078;21.014;2023-07-13T04:30:12;168959.75;;;19.77;100.00
45255;BME280;30989;52.078;21.014;2023-07-13T04:32:37;168990.72;;;19.88;100.00
45255;BME280;30989;52.078;21.014;2023-07-13T04:35:03;169024.41;;;20.01;100.00
45255;BME280;30989;52.078;21.014;2023-07-13T04:37:29;169048.63;;;20.10;100.00
45255;BME280;30989;52.078;21.014;2023-07-13T04:39:55;169062.09;;;20.15;100.00
45255;BME280;30989;52.078;21.014;2023-07-13T04:42:20;169062.09;;;20.15;100.00
45255;BME280;30989;52.078;21.014;2023-07-13T04:44:49;169091.72;;;20.26;100.00
45255;BME280;30989;52.078;21.014;2023-07-13T04:47:15;169102.50;;;20.31;100.00
45255;BME280;30989;52.078;21.014;2023-07-13T04:49:41;169097.13;;;20.28;100.00
45255;BME280;30989;52.078;21.014;2023-07-13T04:52:07;169099.81;;;20.29;100.00
45255;BME280;30989;52.078;21.014;2023-07-13T04:54:33;169086.34;;;20.24;100.00
45255;BME280;30989;52.078;21.014;2023-07-13T04:56:59;169083.66;;;20.23;100.00
45255;BME280;30989;52.078;21.014;2023-07-13T04:59:24;169082.31;;;20.23;100.00
45255;BME280;30989;52.078;21.014;2023-07-13T05:01:50;169062.09;;;20.15;100.00
45255;BME280;30989;52.078;21.014;2023-07-13T05:04:16;169082.31;;;20.23;100.00
45255;BME280;30989;52.078;21.014;2023-07-13T05:06:41;169076.91;;;20.21;100.00
45255;BME280;30989;52.078;21.014;2023-07-13T05:09:07;169064.78;;;20.16;100.00
45255;BME280;30989;52.078;21.014;2023-07-13T05:11:33;169070.19;;;20.18;100.00
45255;BME280;30989;52.078;21.014;2023-07-13T05:13:58;169054.03;;;20.12;100.00
45255;BME280;30989;52.078;21.014;2023-07-13T05:16:24;169039.22;;;20.07;100.00
45255;BME280;30989;52.078;21.014;2023-07-13T05:18:49;169054.03;;;20.12;100.00
45255;BME280;30989;52.078;21.014;2023-07-13T05:21:14;169078.25;;;20.21;100.00
45255;BME280;30989;52.078;21.014;2023-07-13T05:23:40;169062.09;;;20.15;100.00
45255;BME280;30989;52.078;21.014;2023-07-13T05:26:07;169091.72;;;20.26;100.00
45255;BME280;30989;52.078;21.014;2023-07-13T05:28:32;169110.59;;;20.34;100.00
45255;BME280;30989;52.078;21.014;2023-07-13T05:30:58;169118.69;;;20.37;100.00
45255;BME280;30989;52.078;21.014;2023-07-13T05:33:24;169140.28;;;20.45;100.00
45255;BME280;30989;52.078;21.014;2023-07-13T05:35:50;169161.81;;;20.53;100.00
45255;BME280;30989;52.078;21.014;2023-07-13T05:38:16;169196.84;;;20.66;100.00
45255;BME280;30989;52.078;21.014;2023-07-13T05:40:45;169234.63;;;20.80;100.00
45255;BME280;30989;52.078;21.014;2023-07-13T05:43:11;169279.09;;;20.97;100.00
45255;BME280;30989;52.078;21.014;2023-07-13T05:45:37;169307.38;;;21.08;100.00
45255;BME280;30989;52.078;21.014;2023-07-13T05:48:02;169335.69;;;21.18;100.00
45255;BME280;30989;52.078;21.014;2023-07-13T05:50:28;169347.88;;;21.23;100.00
45255;BME280;30989;52.078;21.014;2023-07-13T05:52:53;169353.25;;;21.25;100.00
45255;BME280;30989;52.078;21.014;2023-07-13T05:55:19;169374.81;;;21.33;100.00
45255;BME280;30989;52.078;21.014;2023-07-13T05:57:45;169380.22;;;21.35;100.00
45255;BME280;30989;52.078;21.014;2023-07-13T06:00:11;169403.13;;;21.44;100.00
45255;BME280;30989;52.078;21.014;2023-07-13T06:02:39;169423.34;;;21.51;100.00
45255;BME280;30989;52.078;21.014;2023-07-13T06:05:05;169450.28;;;21.62;100.00
45255;BME280;30989;52.078;21.014;2023-07-13T06:07:31;169458.38;;;21.65;100.00
45255;BME280;30989;52.078;21.014;2023-07-13T06:09:57;169479.94;;;21.73;100.00
45255;BME280;30989;52.078;21.014;2023-07-13T06:12:25;169515.00;;;21.86;100.00
45255;BME280;30989;52.078;21.014;2023-07-13T06:14:50;169533.88;;;21.93;100.00
45255;BME280;30989;52.078;21.014;2023-07-13T06:17:16;169552.75;;;22.00;100.00
45255;BME280;30989;52.078;21.014;2023-07-13T06:19:41;169558.19;;;22.02;100.00
45255;BME280;30989;52.078;21.014;2023-07-13T06:22:07;169566.28;;;22.05;100.00
45255;BME280;30989;52.078;21.014;2023-07-13T06:24:32;169577.06;;;22.09;100.00
45255;BME280;30989;52.078;21.014;2023-07-13T06:26:57;169581.09;;;22.11;100.00
45255;BME280;30989;52.078;21.014;2023-07-13T06:29:23;169598.63;;;22.17;100.00
45255;BME280;30989;52.078;21.014;2023-07-13T06:31:48;169631.00;;;22.30;100.00
45255;BME280;30989;52.078;21.014;2023-07-13T06:34:13;169647.16;;;22.36;100.00
45255;BME280;30989;52.078;21.014;2023-07-13T06:36:39;169668.75;;;22.44;100.00
45255;BME280;30989;52.078;21.014;2023-07-13T06:39:06;169678.19;;;22.47;100.00
45255;BME280;30989;52.078;21.014;2023-07-13T06:41:31;169706.50;;;22.58;100.00
45255;BME280;30989;52.078;21.014;2023-07-13T06:43:58;169710.53;;;22.60;100.00
45255;BME280;30989;52.078;21.014;2023-07-13T06:46:24;169722.69;;;22.64;100.00
45255;BME280;30989;52.078;21.014;2023-07-13T06:48:50;169721.34;;;22.64;100.00
45255;BME280;30989;52.078;21.014;2023-07-13T06:51:16;169710.53;;;22.60;100.00
45255;BME280;30989;52.078;21.014;2023-07-13T06:53:41;169683.56;;;22.49;100.00
45255;BME280;30989;52.078;21.014;2023-07-13T06:56:09;169684.91;;;22.50;100.00
45255;BME280;30989;52.078;21.014;2023-07-13T06:58:36;169695.72;;;22.54;100.00
45255;BME280;30989;52.078;21.014;2023-07-13T07:01:02;169710.53;;;22.60;100.00
45255;BME280;30989;52.078;21.014;2023-07-13T07:03:27;169721.34;;;22.64;100.00
45255;BME280;30989;52.078;21.014;2023-07-13T07:05:53;169701.09;;;22.56;100.00
45255;BME280;30989;52.078;21.014;2023-07-13T07:08:18;169719.97;;;22.63;100.00
45255;BME280;30989;52.078;21.014;2023-07-13T07:10:44;169751.00;;;22.75;100.00
45255;BME280;30989;52.078;21.014;2023-07-13T07:13:10;169791.50;;;22.90;100.00
45255;BME280;30989;52.078;21.014;2023-07-13T07:15:36;169826.56;;;23.03;100.00
45255;BME280;30989;52.078;21.014;2023-07-13T07:18:02;169857.59;;;23.15;100.00
45255;BME280;30989;52.078;21.014;2023-07-13T07:20:27;169884.59;;;23.25;100.00
45255;BME280;30989;52.078;21.014;2023-07-13T07:22:53;169904.81;;;23.33;100.00
45255;BME280;30989;52.078;21.014;2023-07-13T07:25:18;169941.25;;;23.46;100.00
45255;BME280;30989;52.078;21.014;2023-07-13T07:27:44;169965.56;;;23.56;100.00
45255;BME280;30989;52.078;21.014;2023-07-13T07:30:10;169960.13;;;23.54;100.00
45255;BME280;30989;52.078;21.014;2023-07-13T07:32:36;169984.47;;;23.63;100.00
45255;BME280;30989;52.078;21.014;2023-07-13T07:35:01;170018.19;;;23.75;99.64
45255;BME280;30989;52.078;21.014;2023-07-13T07:37:27;170058.69;;;23.91;98.46
45255;BME280;30989;52.078;21.014;2023-07-13T07:39:52;170078.91;;;23.98;96.06
45255;BME280;30989;52.078;21.014;2023-07-13T07:42:18;170103.22;;;24.07;93.53
45255;BME280;30989;52.078;21.014;2023-07-13T07:44:43;170108.59;;;24.09;93.94
45255;BME280;30989;52.078;21.014;2023-07-13T07:47:09;170136.94;;;24.20;92.66
45255;BME280;30989;52.078;21.014;2023-07-13T07:49:35;170173.44;;;24.34;91.28
45255;BME280;30989;52.078;21.014;2023-07-13T07:52:01;170189.63;;;24.40;90.18
45255;BME280;30989;52.078;21.014;2023-07-13T07:54:26;170224.72;;;24.53;90.68
45255;BME280;30989;52.078;21.014;2023-07-13T07:56:52;170243.63;;;24.60;90.37
45255;BME280;30989;52.078;21.014;2023-07-13T07:59:18;170262.53;;;24.67;90.29
45255;BME280;30989;52.078;21.014;2023-07-13T08:01:44;170288.19;;;24.77;90.05
45255;BME280;30989;52.078;21.014;2023-07-13T08:04:11;170307.06;;;24.84;88.91
45255;BME280;30989;52.078;21.014;2023-07-13T08:06:37;170312.47;;;24.86;89.15
45255;BME280;30989;52.078;21.014;2023-07-13T08:09:03;170296.28;;;24.80;88.24
45255;BME280;30989;52.078;21.014;2023-07-13T08:11:29;170277.38;;;24.73;88.11
45255;BME280;30989;52.078;21.014;2023-07-13T08:13:55;170274.66;;;24.72;87.43
45255;BME280;30989;52.078;21.014;2023-07-13T08:16:20;170286.81;;;24.77;88.59
45255;BME280;30989;52.078;21.014;2023-07-13T08:18:46;170282.78;;;24.75;87.54
45255;BME280;30989;52.078;21.014;2023-07-13T08:21:12;170313.81;;;24.87;88.75
45255;BME280;30989;52.078;21.014;2023-07-13T08:23:37;170344.94;;;24.98;87.07
45255;BME280;30989;52.078;21.014;2023-07-13T08:26:04;170355.72;;;25.02;87.53
45255;BME280;30989;52.078;21.014;2023-07-13T08:28:30;170404.34;;;25.21;87.68
45255;BME280;30989;52.078;21.014;2023-07-13T08:31:07;170467.81;;;25.45;87.01
45255;BME280;30989;52.078;21.014;2023-07-13T08:33:34;170532.66;;;25.69;87.55
45255;BME280;30989;52.078;21.014;2023-07-13T08:36:00;170592.09;;;25.91;85.66
45255;BME280;30989;52.078;21.014;2023-07-13T08:38:25;170615.06;;;26.00;84.71
45255;BME280;30989;52.078;21.014;2023-07-13T08:40:53;170646.19;;;26.12;83.37
45255;BME280;30989;52.078;21.014;2023-07-13T08:43:29;170675.91;;;26.23;83.55
45255;BME280;30989;52.078;21.014;2023-07-13T08:46:08;170702.97;;;26.33;82.44
45255;BME280;30989;52.078;21.014;2023-07-13T08:48:49;170754.31;;;26.52;82.63
45255;BME280;30989;52.078;21.014;2023-07-13T08:54:21;170900.28;;;27.07;78.52
45255;BME280;30989;52.078;21.014;2023-07-13T08:56:50;170928.69;;;27.18;79.44
45255;BME280;30989;52.078;21.014;2023-07-13T08:59:21;170889.47;;;27.03;76.92
45255;BME280;30989;52.078;21.014;2023-07-13T09:04:43;170873.25;;;26.97;76.37
45255;BME280;30989;52.078;21.014;2023-07-13T09:07:14;170875.97;;;26.98;75.47
45255;BME280;30989;52.078;21.014;2023-07-13T09:09:50;170867.81;;;26.95;75.19
45255;BME280;30989;52.078;21.014;2023-07-13T09:14:51;170911.09;;;27.11;76.96
45255;BME280;30989;52.078;21.014;2023-07-13T09:17:22;170978.69;;;27.37;76.27
45255;BME280;30989;52.078;21.014;2023-07-13T09:19:56;171021.94;;;27.53;75.24
45255;BME280;30989;52.078;21.014;2023-07-13T09:22:22;171049.03;;;27.63;74.30
45255;BME280;30989;52.078;21.014;2023-07-13T09:24:53;171059.84;;;27.67;74.43
45255;BME280;30989;52.078;21.014;2023-07-13T09:27:30;171046.31;;;27.62;73.55
45255;BME280;30989;52.078;21.014;2023-07-13T09:30:20;171069.28;;;27.71;73.34
45255;BME280;30989;52.078;21.014;2023-07-13T09:32:51;171100.38;;;27.82;72.87
45255;BME280;30989;52.078;21.014;2023-07-13T09:35:25;171116.59;;;27.88;73.11
45255;BME280;30989;52.078;21.014;2023-07-13T09:37:58;171108.50;;;27.85;71.53
45255;BME280;30989;52.078;21.014;2023-07-13T09:40:34;171103.09;;;27.83;71.72
45255;BME280;30989;52.078;21.014;2023-07-13T09:43:02;171103.09;;;27.83;71.34
45255;BME280;30989;52.078;21.014;2023-07-13T09:45:32;171081.47;;;27.75;72.20
45255;BME280;30989;52.078;21.014;2023-07-13T09:48:12;171086.88;;;27.77;71.77
45255;BME280;30989;52.078;21.014;2023-07-13T09:50:39;171146.34;;;28.00;72.88
45255;BME280;30989;52.078;21.014;2023-07-13T09:53:18;171245.09;;;28.37;71.95
45255;BME280;30989;52.078;21.014;2023-07-13T09:55:46;171285.69;;;28.52;69.89
45255;BME280;30989;52.078;21.014;2023-07-13T09:58:13;171272.16;;;28.47;69.15
45255;BME280;30989;52.078;21.014;2023-07-13T10:00:40;171214.00;;;28.25;68.04
45255;BME280;30989;52.078;21.014;2023-07-13T10:05:43;171119.31;;;27.89;69.05
45255;BME280;30989;52.078;21.014;2023-07-13T10:08:30;171057.13;;;27.66;68.82
45255;BME280;30989;52.078;21.014;2023-07-13T10:11:14;170970.56;;;27.34;69.23
45255;BME280;30989;52.078;21.014;2023-07-13T10:13:43;170892.19;;;27.04;69.26
45255;BME280;30989;52.078;21.014;2023-07-13T10:16:09;170805.66;;;26.72;69.92
45255;BME280;30989;52.078;21.014;2023-07-13T10:18:40;170727.28;;;26.42;70.52
45255;BME280;30989;52.078;21.014;2023-07-13T10:21:19;170654.28;;;26.15;71.09
45255;BME280;30989;52.078;21.014;2023-07-13T10:26:37;170551.59;;;25.76;71.13
45255;BME280;30989;52.078;21.014;2023-07-13T10:29:09;170524.56;;;25.66;71.18
45255;BME280;30989;52.078;21.014;2023-07-13T10:31:38;170500.22;;;25.57;71.25
45255;BME280;30989;52.078;21.014;2023-07-13T10:34:04;170470.50;;;25.46;72.29
45255;BME280;30989;52.078;21.014;2023-07-13T10:36:47;170455.66;;;25.40;71.43
45255;BME280;30989;52.078;21.014;2023-07-13T10:39:16;170371.94;;;25.09;68.71
45255;BME280;30989;52.078;21.014;2023-07-13T10:41:44;170273.31;;;24.71;69.91
45255;BME280;30989;52.078;21.014;2023-07-13T10:44:24;170181.53;;;24.37;69.89
45255;BME280;30989;52.078;21.014;2023-07-13T10:46:54;170072.16;;;23.96;71.54
45255;BME280;30989;52.078;21.014;2023-07-13T10:49:21;169925.06;;;23.40;75.48
45255;BME280;30989;52.078;21.014;2023-07-13T10:51:47;169798.25;;;22.93;75.76
45255;BME280;30989;52.078;21.014;2023-07-13T10:54:18;169711.88;;;22.60;77.85
45255;BME280;30989;52.078;21.014;2023-07-13T10:56:45;169626.94;;;22.28;79.78
45255;BME280;30989;52.078;21.014;2023-07-13T10:59:15;169564.91;;;22.05;81.31
45255;BME280;30989;52.078;21.014;2023-07-13T11:01:58;169509.59;;;21.84;82.64
45255;BME280;30989;52.078;21.014;2023-07-13T11:04:25;169467.81;;;21.68;83.86
45255;BME280;30989;52.078;21.014;2023-07-13T11:06:59;169432.78;;;21.55;85.03
45255;BME280;30989;52.078;21.014;2023-07-13T11:09:38;169377.50;;;21.34;91.17
45255;BME280;30989;52.078;21.014;2023-07-13T11:12:29;169280.44;;;20.98;95.28
45255;BME280;30989;52.078;21.014;2023-07-13T11:15:13;169167.22;;;20.55;97.20
45255;BME280;30989;52.078;21.014;2023-07-13T11:17:49;169066.16;;;20.17;100.00
45255;BME280;30989;52.078;21.014;2023-07-13T11:22:48;168850.66;;;19.36;100.00
45255;BME280;30989;52.078;21.014;2023-07-13T11:25:28;168763.16;;;19.03;100.00
45255;BME280;30989;52.078;21.014;2023-07-13T11:33:48;168596.22;;;18.40;100.00
45255;BME280;30989;52.078;21.014;2023-07-13T11:36:19;168569.31;;;18.29;100.00
45255;BME280;30989;52.078;21.014;2023-07-13T11:41:44;168518.19;;;18.10;100.00
45255;BME280;30989;52.078;21.014;2023-07-13T11:44:16;168530.28;;;18.15;100.00
45255;BME280;30989;52.078;21.014;2023-07-13T11:46:56;168520.88;;;18.11;100.00
45255;BME280;30989;52.078;21.014;2023-07-13T11:49:29;168528.94;;;18.14;100.00
45255;BME280;30989;52.078;21.014;2023-07-13T11:51:56;168535.69;;;18.17;100.00
45255;BME280;30989;52.078;21.014;2023-07-13T11:54:34;168535.69;;;18.17;100.00
45255;BME280;30989;52.078;21.014;2023-07-13T11:57:26;168546.44;;;18.21;100.00
45255;BME280;30989;52.078;21.014;2023-07-13T11:59:54;168559.88;;;18.26;100.00
45255;BME280;30989;52.078;21.014;2023-07-13T12:02:35;168605.63;;;18.43;100.00
45255;BME280;30989;52.078;21.014;2023-07-13T12:05:03;168656.81;;;18.62;100.00
45255;BME280;30989;52.078;21.014;2023-07-13T12:07:32;168705.28;;;18.81;100.00
45255;BME280;30989;52.078;21.014;2023-07-13T12:10:18;168742.97;;;18.95;100.00
45255;BME280;30989;52.078;21.014;2023-07-13T12:12:56;168776.59;;;19.08;100.00
45255;BME280;30989;52.078;21.014;2023-07-13T12:15:23;168794.09;;;19.14;100.00
45255;BME280;30989;52.078;21.014;2023-07-13T12:17:52;168829.09;;;19.27;100.00
45255;BME280;30989;52.078;21.014;2023-07-13T12:20:21;168837.19;;;19.30;100.00
45255;BME280;30989;52.078;21.014;2023-07-13T12:22:50;168841.22;;;19.32;100.00
45255;BME280;30989;52.078;21.014;2023-07-13T12:25:16;168838.53;;;19.31;100.00
45255;BME280;30989;52.078;21.014;2023-07-13T12:27:46;168846.59;;;19.34;100.00
45255;BME280;30989;52.078;21.014;2023-07-13T12:30:28;168842.56;;;19.32;100.00
45255;BME280;30989;52.078;21.014;2023-07-13T12:33:07;168846.59;;;19.34;100.00
45255;BME280;30989;52.078;21.014;2023-07-13T12:35:40;168868.16;;;19.42;100.00
45255;BME280;30989;52.078;21.014;2023-07-13T12:38:08;168869.50;;;19.43;100.00
45255;BME280;30989;52.078;21.014;2023-07-13T12:40:36;168860.06;;;19.39;100.00
45255;BME280;30989;52.078;21.014;2023-07-13T12:43:03;168887.00;;;19.49;100.00
45255;BME280;30989;52.078;21.014;2023-07-13T12:45:32;168885.66;;;19.49;100.00
45255;BME280;30989;52.078;21.014;2023-07-13T12:48:16;168884.31;;;19.48;100.00
45255;BME280;30989;52.078;21.014;2023-07-13T12:50:46;168885.66;;;19.49;100.00
45255;BME280;30989;52.078;21.014;2023-07-13T12:53:16;168892.38;;;19.51;100.00
45255;BME280;30989;52.078;21.014;2023-07-13T12:55:46;168903.22;;;19.55;100.00
45255;BME280;30989;52.078;21.014;2023-07-13T12:58:19;168913.97;;;19.59;100.00
45255;BME280;30989;52.078;21.014;2023-07-13T13:00:50;168942.25;;;19.70;100.00
45255;BME280;30989;52.078;21.014;2023-07-13T13:03:30;168959.75;;;19.77;100.00